createdAt,value
2022-10-08T00:02:07.843Z,101889.81
2022-10-08T00:04:34.472Z,101885.13
2022-10-08T00:07:01.549Z,101878.00
2022-10-08T00:09:28.077Z,101885.28
2022-10-08T00:11:54.645Z,101885.53
2022-10-08T00:14:23.563Z,101875.84
2022-10-08T00:16:50.069Z,101870.72
2022-10-08T00:19:16.666Z,101877.25
2022-10-08T00:21:45.043Z,101880.97
2022-10-08T00:24:14.639Z,101875.53
2022-10-08T00:26:44.186Z,101867.84
2022-10-08T00:29:13.590Z,101855.41
2022-10-08T00:31:41.272Z,101861.00
2022-10-08T00:34:11.024Z,101864.97
2022-10-08T00:36:38.679Z,101863.09
2022-10-08T00:39:08.044Z,101864.97
2022-10-08T00:41:37.283Z,101863.25
2022-10-08T00:45:02.020Z,101864.38
2022-10-08T00:47:48.492Z,101863.53
2022-10-08T00:50:16.682Z,101864.50
2022-10-08T00:52:58.547Z,101870.09
2022-10-08T00:55:28.021Z,101863.34
2022-10-08T00:57:56.149Z,101860.66
2022-10-08T01:00:24.366Z,101860.66
2022-10-08T01:02:51.985Z,101860.06
2022-10-08T01:05:43.134Z,101854.78
2022-10-08T01:08:12.943Z,101854.34
2022-10-08T01:11:16.757Z,101855.47
2022-10-08T01:14:05.204Z,101852.91
2022-10-08T01:16:40.379Z,101850.31
2022-10-08T01:19:23.129Z,101855.16
2022-10-08T01:22:00.740Z,101848.03
2022-10-08T01:25:05.265Z,101849.97
2022-10-08T01:27:38.348Z,101851.75
2022-10-08T01:30:08.653Z,101842.75
2022-10-08T01:32:39.505Z,101845.81
2022-10-08T01:35:11.302Z,101843.41
2022-10-08T01:37:39.860Z,101848.94
2022-10-08T01:40:20.305Z,101840.09
2022-10-08T01:42:48.755Z,101834.09
2022-10-08T01:45:20.159Z,101833.38
2022-10-08T01:47:47.376Z,101831.69
2022-10-08T01:50:29.114Z,101834.38
2022-10-08T01:52:58.980Z,101834.50
2022-10-08T01:55:38.670Z,101830.22
2022-10-08T01:58:12.616Z,101829.75
2022-10-08T02:00:40.882Z,101829.19
2022-10-08T02:03:08.050Z,101820.94
2022-10-08T02:05:36.218Z,101815.25
2022-10-08T02:08:03.229Z,101820.53
2022-10-08T02:10:30.267Z,101820.69
2022-10-08T02:12:56.971Z,101821.66
2022-10-08T02:15:38.822Z,101821.94
2022-10-08T02:18:16.131Z,101819.63
2022-10-08T02:20:45.456Z,101817.91
2022-10-08T02:23:37.782Z,101813.38
2022-10-08T02:26:06.353Z,101804.53
2022-10-08T02:29:11.101Z,101802.69
2022-10-08T02:31:43.016Z,101791.41
2022-10-08T02:34:24.708Z,101790.56
2022-10-08T02:37:00.741Z,101789.69
2022-10-08T02:39:29.490Z,101788.84
2022-10-08T02:41:59.601Z,101786.41
2022-10-08T02:44:49.315Z,101791.09
2022-10-08T02:47:18.790Z,101787.66
2022-10-08T02:49:50.793Z,101787.06
2022-10-08T02:52:18.986Z,101788.91
2022-10-08T02:54:47.285Z,101781.66
2022-10-08T02:57:15.965Z,101777.97
2022-10-08T02:59:43.340Z,101775.56
2022-10-08T03:02:12.861Z,101776.81
2022-10-08T03:04:44.705Z,101775.94
2022-10-08T03:07:13.570Z,101779.22
2022-10-08T03:09:43.044Z,101779.34
2022-10-08T03:12:09.560Z,101781.22
2022-10-08T03:14:39.616Z,101781.22
2022-10-08T03:17:06.914Z,101786.00
2022-10-08T03:19:34.386Z,101787.88
2022-10-08T03:22:01.748Z,101786.19
2022-10-08T03:24:28.327Z,101791.72
2022-10-08T03:26:54.975Z,101790.13
2022-10-08T03:29:21.551Z,101789.25
2022-10-08T03:31:51.103Z,101786.69
2022-10-08T03:34:17.674Z,101785.97
2022-10-08T03:36:44.308Z,101786.09
2022-10-08T03:39:11.533Z,101778.97
2022-10-08T03:41:38.069Z,101780.09
2022-10-08T03:44:08.033Z,101779.97
2022-10-08T03:46:34.700Z,101780.97
2022-10-08T03:49:01.278Z,101791.19
2022-10-08T03:51:27.787Z,101784.06
2022-10-08T03:53:54.310Z,101785.19
2022-10-08T03:56:24.763Z,101785.19
2022-10-08T03:58:59.415Z,101779.66
2022-10-08T04:01:28.043Z,101791.31
2022-10-08T04:03:54.702Z,101786.75
2022-10-08T04:06:21.280Z,101777.78
2022-10-08T04:08:47.835Z,101785.19
2022-10-08T04:11:19.177Z,101777.34
2022-10-08T04:13:46.011Z,101776.63
2022-10-08T04:16:15.050Z,101778.31
2022-10-08T04:18:42.309Z,101778.44
2022-10-08T04:21:11.942Z,101781.16
2022-10-08T04:23:40.437Z,101782.88
2022-10-08T04:26:08.679Z,101788.28
2022-10-08T04:28:38.746Z,101785.69
2022-10-08T04:31:11.895Z,101784.72
2022-10-08T04:33:38.695Z,101789.25
2022-10-08T04:36:16.826Z,101793.81
2022-10-08T04:38:44.109Z,101794.81
2022-10-08T04:41:16.478Z,101792.97
2022-10-08T04:43:44.207Z,101788.53
2022-10-08T04:46:14.068Z,101794.09
2022-10-08T04:48:46.446Z,101791.78
2022-10-08T04:51:12.998Z,101786.50
2022-10-08T04:53:39.501Z,101779.38
2022-10-08T04:56:15.444Z,101777.38
2022-10-08T04:58:42.484Z,101785.38
2022-10-08T05:01:11.055Z,101777.16
2022-10-08T05:03:39.229Z,101783.53
2022-10-08T05:06:06.309Z,101784.53
2022-10-08T05:08:33.241Z,101787.97
2022-10-08T06:10:37.191Z,101801.41
2022-10-08T06:13:03.718Z,101797.72
2022-10-08T06:15:30.259Z,101800.16
2022-10-08T06:17:58.535Z,101808.84
2022-10-08T06:20:28.494Z,101810.56
2022-10-08T06:22:57.609Z,101810.88
2022-10-08T06:25:24.192Z,101808.38
2022-10-08T06:27:50.691Z,101813.25
2022-10-08T06:30:17.300Z,101811.75
2022-10-08T06:32:43.849Z,101812.19
2022-10-08T06:35:10.395Z,101811.66
2022-10-08T06:37:36.929Z,101810.09
2022-10-08T06:40:03.588Z,101812.16
2022-10-08T06:42:30.078Z,101812.75
2022-10-08T06:45:01.310Z,101822.31
2022-10-08T06:47:28.663Z,101829.88
2022-10-08T06:49:55.155Z,101823.78
2022-10-08T06:52:21.671Z,101821.28
2022-10-08T06:54:48.179Z,101828.28
2022-10-08T06:57:14.711Z,101826.59
2022-10-08T06:59:41.214Z,101825.06
2022-10-08T07:02:10.261Z,101814.41
2022-10-08T07:04:37.147Z,101825.66
2022-10-08T07:07:03.751Z,101827.09
2022-10-08T07:09:30.992Z,101823.09
2022-10-08T07:11:57.765Z,101819.00
2022-10-08T07:14:24.348Z,101814.56
2022-10-08T07:16:50.890Z,101824.84
2022-10-08T07:19:17.453Z,101823.41
2022-10-08T07:21:43.973Z,101831.69
2022-10-08T07:24:10.499Z,101833.72
2022-10-08T07:26:37.091Z,101831.16
2022-10-08T07:29:11.934Z,101835.88
2022-10-08T07:31:39.232Z,101833.44
2022-10-08T07:34:08.286Z,101834.56
2022-10-08T07:36:35.416Z,101833.97
2022-10-08T07:39:04.975Z,101837.66
2022-10-08T07:41:31.934Z,101832.50
2022-10-08T07:44:00.518Z,101828.22
2022-10-08T07:46:28.707Z,101833.06
2022-10-08T07:48:56.857Z,101837.59
2022-10-08T07:51:23.428Z,101842.28
2022-10-08T07:53:50.112Z,101843.53
2022-10-08T07:56:18.383Z,101841.56
2022-10-08T07:58:45.227Z,101839.28
2022-10-08T08:01:14.755Z,101844.09
2022-10-08T08:03:41.764Z,101838.78
2022-10-08T08:06:13.706Z,101843.75
2022-10-08T08:08:44.887Z,101841.44
2022-10-08T08:11:16.802Z,101843.41
2022-10-08T08:13:43.909Z,101839.78
2022-10-08T08:16:15.718Z,101835.84
2022-10-08T08:18:45.413Z,101832.94
2022-10-08T08:21:14.250Z,101835.56
2022-10-08T08:23:43.155Z,101835.38
2022-10-08T08:26:12.099Z,101843.16
2022-10-08T08:28:39.458Z,101848.34
2022-10-08T08:31:12.829Z,101849.13
2022-10-08T08:33:39.873Z,101855.31
2022-10-08T08:36:06.790Z,101846.38
2022-10-08T08:38:37.382Z,101855.75
2022-10-08T08:41:25.708Z,101844.56
2022-10-08T08:44:17.134Z,101845.63
2022-10-08T08:46:55.962Z,101851.00
2022-10-08T08:49:52.073Z,101859.03
2022-10-08T08:52:22.724Z,101854.34
2022-10-08T08:54:50.650Z,101858.53
2022-10-08T08:57:22.681Z,101852.56
2022-10-08T08:59:52.565Z,101847.13
2022-10-08T09:02:24.728Z,101857.31
2022-10-08T09:04:55.385Z,101859.19
2022-10-08T09:07:25.203Z,101866.63
2022-10-08T09:09:53.589Z,101856.09
2022-10-08T09:12:30.231Z,101864.41
2022-10-08T09:14:59.262Z,101862.53
2022-10-08T09:17:37.570Z,101860.13
2022-10-08T09:20:04.835Z,101863.56
2022-10-08T09:22:36.314Z,101861.19
2022-10-08T09:25:13.417Z,101861.59
2022-10-08T09:27:45.317Z,101864.00
2022-10-08T09:30:31.897Z,101856.66
2022-10-08T09:33:00.786Z,101855.72
2022-10-08T09:35:27.724Z,101861.78
2022-10-08T09:37:56.443Z,101858.75
2022-10-08T09:40:29.743Z,101865.75
2022-10-08T09:43:09.102Z,101859.28
2022-10-08T09:45:41.396Z,101857.03
2022-10-08T09:48:31.258Z,101857.38
2022-10-08T09:51:11.310Z,101862.47
2022-10-08T09:53:50.359Z,101855.19
2022-10-08T09:56:27.437Z,101856.56
2022-10-08T09:58:57.217Z,101844.34
2022-10-08T10:01:25.494Z,101850.50
2022-10-08T10:04:02.290Z,101850.50
2022-10-08T10:06:39.949Z,101847.38
2022-10-08T10:09:27.087Z,101848.41
2022-10-08T10:12:05.391Z,101844.00
2022-10-08T10:14:44.842Z,101846.06
2022-10-08T10:17:40.101Z,101844.06
2022-10-08T10:20:18.061Z,101839.91
2022-10-08T10:22:56.847Z,101837.38
2022-10-08T10:25:46.669Z,101843.03
2022-10-08T10:28:17.454Z,101844.25
2022-10-08T10:30:53.178Z,101845.44
2022-10-08T10:33:30.366Z,101846.50
2022-10-08T10:36:01.072Z,101843.41
2022-10-08T10:38:30.151Z,101842.88
2022-10-08T10:41:32.190Z,101843.06
2022-10-08T10:44:05.781Z,101846.34
2022-10-08T10:46:51.808Z,101841.91
2022-10-08T10:49:22.375Z,101838.00
2022-10-08T10:51:57.302Z,101835.25
2022-10-08T10:55:00.770Z,101837.47
2022-10-08T10:57:43.302Z,101839.50
2022-10-08T11:00:26.192Z,101839.88
2022-10-08T11:02:56.367Z,101841.56
2022-10-08T11:05:24.507Z,101840.72
2022-10-08T11:08:16.844Z,101837.16
2022-10-08T11:10:58.499Z,101837.78
2022-10-08T11:13:25.107Z,101832.69
2022-10-08T11:16:13.508Z,101829.94
2022-10-08T11:18:53.702Z,101828.56
2022-10-08T11:21:42.447Z,101819.34
2022-10-08T11:24:15.135Z,101808.09
2022-10-08T11:29:30.308Z,101803.13
2022-10-08T11:31:57.281Z,101809.78
2022-10-08T11:34:27.854Z,101807.41
2022-10-08T11:37:09.989Z,101799.03
2022-10-08T11:39:51.917Z,101807.06
2022-10-08T11:42:40.733Z,101801.28
2022-10-08T11:45:33.481Z,101800.94
2022-10-08T11:48:01.570Z,101799.25
2022-10-08T11:50:33.008Z,101791.06
2022-10-08T11:53:14.226Z,101800.94
2022-10-08T11:55:52.204Z,101797.72
2022-10-08T11:58:26.488Z,101786.94
2022-10-08T12:01:04.187Z,101791.72
2022-10-08T12:03:34.040Z,101790.81
2022-10-08T12:06:15.094Z,101797.13
2022-10-08T12:09:00.270Z,101788.75
2022-10-08T12:11:29.841Z,101787.06
2022-10-08T12:14:19.152Z,101781.25
2022-10-08T12:16:48.910Z,101777.16
2022-10-08T12:19:34.052Z,101783.16
2022-10-08T12:22:02.734Z,101778.75
2022-10-08T12:27:17.194Z,101772.41
2022-10-08T12:30:10.973Z,101772.25
2022-10-08T12:32:43.690Z,101768.84
2022-10-08T12:35:26.462Z,101772.91
2022-10-08T12:37:59.814Z,101763.03
2022-10-08T12:40:37.904Z,101767.47
2022-10-08T12:43:23.397Z,101760.31
2022-10-08T12:45:55.534Z,101763.72
2022-10-08T12:48:34.098Z,101766.63
2022-10-08T12:51:13.248Z,101768.50
2022-10-08T12:53:44.761Z,101759.44
2022-10-08T12:56:14.472Z,101761.00
2022-10-08T12:58:44.342Z,101762.69
2022-10-08T13:01:14.629Z,101751.09
2022-10-08T13:03:41.234Z,101756.75
2022-10-08T13:06:31.642Z,101749.75
2022-10-08T13:09:01.760Z,101747.22
2022-10-08T13:11:28.351Z,101748.06
2022-10-08T13:13:54.881Z,101748.75
2022-10-08T13:16:24.072Z,101747.91
2022-10-08T13:18:53.579Z,101746.19
2022-10-08T13:21:32.167Z,101736.47
2022-10-08T13:23:59.820Z,101739.53
2022-10-08T13:26:48.330Z,101733.59
2022-10-08T13:29:21.406Z,101733.75
2022-10-08T13:32:13.397Z,101730.88
2022-10-08T13:34:40.185Z,101725.03
2022-10-08T13:37:14.104Z,101720.94
2022-10-08T13:39:43.195Z,101719.72
2022-10-08T13:42:16.780Z,101724.84
2022-10-08T13:44:43.471Z,101724.84
2022-10-08T13:47:14.453Z,101719.38
2022-10-08T13:49:41.448Z,101721.44
2022-10-08T13:52:23.943Z,101713.41
2022-10-08T13:54:51.742Z,101726.75
2022-10-08T13:57:18.232Z,101720.97
2022-10-08T13:59:44.841Z,101722.50
2022-10-08T14:02:13.788Z,101724.59
2022-10-08T14:04:40.640Z,101725.59
2022-10-08T14:07:34.751Z,101719.47
2022-10-08T14:10:01.835Z,101726.78
2022-10-08T14:12:32.662Z,101722.19
2022-10-08T14:14:59.804Z,101723.22
2022-10-08T14:17:26.923Z,101717.94
2022-10-08T14:19:55.381Z,101722.03
2022-10-08T14:22:22.125Z,101713.84
2022-10-08T14:24:48.725Z,101718.78
2022-10-08T14:27:15.505Z,101706.50
2022-10-08T14:29:42.063Z,101707.88
2022-10-08T14:32:10.005Z,101705.50
2022-10-08T14:34:36.772Z,101712.34
2022-10-08T14:37:04.239Z,101707.22
2022-10-08T14:39:31.538Z,101701.44
2022-10-08T14:41:58.752Z,101695.81
2022-10-08T14:44:25.367Z,101698.38
2022-10-08T14:46:52.901Z,101703.16
2022-10-08T14:49:20.488Z,101705.19
2022-10-08T14:51:47.104Z,101708.44
2022-10-08T14:54:13.840Z,101700.94
2022-10-08T14:56:42.689Z,101692.25
2022-10-08T14:59:10.139Z,101699.00
2022-10-08T15:01:37.159Z,101701.03
2022-10-08T15:04:04.525Z,101692.84
2022-10-08T15:06:31.277Z,101702.38
2022-10-08T15:08:57.881Z,101688.06
2022-10-08T15:11:24.709Z,101691.81
2022-10-08T15:13:55.405Z,101690.47
2022-10-08T15:16:22.049Z,101696.22
2022-10-08T15:18:48.592Z,101694.53
2022-10-08T15:21:15.275Z,101698.28
2022-10-08T15:23:41.881Z,101691.28
2022-10-08T15:26:14.703Z,101690.78
2022-10-08T15:28:43.169Z,101689.88
2022-10-08T15:31:12.344Z,101695.13
2022-10-08T15:33:39.007Z,101685.59
2022-10-08T15:36:16.677Z,101689.19
2022-10-08T15:38:43.221Z,101684.56
2022-10-08T15:41:09.788Z,101691.34
2022-10-08T15:43:36.276Z,101684.88
2022-10-08T15:46:10.969Z,101691.78
2022-10-08T15:48:38.327Z,101688.53
2022-10-08T15:51:05.751Z,101689.72
2022-10-08T15:53:36.390Z,101693.06
2022-10-08T15:56:03.759Z,101691.69
2022-10-08T15:58:49.805Z,101685.50
2022-10-08T16:01:18.751Z,101682.75
2022-10-08T16:03:47.043Z,101688.81
2022-10-08T16:06:16.359Z,101680.31
2022-10-08T16:08:44.968Z,101680.63
2022-10-08T16:11:19.020Z,101696.09
2022-10-08T16:13:47.996Z,101684.84
2022-10-08T16:16:17.118Z,101686.88
2022-10-08T16:18:47.949Z,101681.75
2022-10-08T16:21:14.497Z,101684.09
2022-10-08T16:23:41.001Z,101683.69
2022-10-08T16:26:09.111Z,101692.47
2022-10-08T16:28:39.072Z,101688.38
2022-10-08T16:31:07.056Z,101685.09
2022-10-08T16:33:33.835Z,101688.31
2022-10-08T16:36:05.721Z,101688.44
2022-10-08T16:38:38.680Z,101690.31
2022-10-08T16:41:32.331Z,101688.59
2022-10-08T16:44:06.490Z,101693.34
2022-10-08T16:46:39.225Z,101694.38
2022-10-08T16:49:22.750Z,101690.25
2022-10-08T16:51:50.871Z,101691.41
2022-10-08T16:54:18.721Z,101700.56
2022-10-08T16:56:46.418Z,101699.03
2022-10-08T16:59:19.036Z,101700.72
2022-10-08T17:01:47.037Z,101701.13
2022-10-08T17:04:14.871Z,101706.22
2022-10-08T17:06:42.359Z,101704.34
2022-10-08T17:09:08.969Z,101708.94
2022-10-08T17:11:35.791Z,101712.69
2022-10-08T17:14:02.883Z,101715.41
2022-10-08T17:16:30.981Z,101717.41
2022-10-08T17:18:59.519Z,101727.25
2022-10-08T17:21:27.510Z,101728.66
2022-10-08T17:23:54.377Z,101735.50
2022-10-08T17:26:23.220Z,101733.63
2022-10-08T17:28:51.847Z,101741.63
2022-10-08T17:31:20.958Z,101744.19
2022-10-08T17:33:47.757Z,101757.63
2022-10-08T17:36:16.734Z,101759.66
2022-10-08T17:38:45.123Z,101764.75
2022-10-08T17:41:13.889Z,101766.47
2022-10-08T17:43:40.791Z,101766.31
2022-10-08T17:46:28.806Z,101769.72
2022-10-08T17:48:59.295Z,101767.00
2022-10-08T17:51:28.133Z,101776.03
2022-10-08T17:54:02.093Z,101769.91
2022-10-08T17:56:29.342Z,101774.63
2022-10-08T17:58:56.159Z,101771.75
2022-10-08T18:01:28.174Z,101779.03
2022-10-08T18:04:09.175Z,101775.47
2022-10-08T18:06:38.600Z,101778.19
2022-10-08T18:09:06.958Z,101780.78
2022-10-08T18:11:36.424Z,101779.63
2022-10-08T18:14:03.691Z,101787.59
2022-10-08T18:16:30.253Z,101781.19
2022-10-08T18:18:56.973Z,101790.72
2022-10-08T18:21:23.568Z,101786.69
2022-10-08T18:23:50.573Z,101784.97
2022-10-08T18:26:24.128Z,101795.84
2022-10-08T18:28:54.092Z,101788.56
2022-10-08T18:31:22.992Z,101789.41
2022-10-08T18:33:51.608Z,101791.09
2022-10-08T18:36:23.363Z,101783.28
2022-10-08T18:38:57.807Z,101783.75
2022-10-08T18:41:28.022Z,101793.75
2022-10-08T18:43:55.211Z,101791.19
2022-10-08T18:46:23.207Z,101788.63
2022-10-08T18:48:49.930Z,101787.78
2022-10-08T18:51:22.348Z,101794.06
2022-10-08T18:53:49.737Z,101793.22
2022-10-08T18:56:25.447Z,101792.19
2022-10-08T18:58:55.842Z,101792.03
2022-10-08T19:01:24.841Z,101789.00
2022-10-08T19:03:53.295Z,101798.19
2022-10-08T19:06:21.557Z,101800.91
2022-10-08T19:08:51.108Z,101797.00
2022-10-08T19:11:20.158Z,101797.84
2022-10-08T19:13:47.032Z,101806.88
2022-10-08T19:16:15.333Z,101795.00
2022-10-08T19:18:51.985Z,101797.41
2022-10-08T19:21:19.273Z,101800.97
2022-10-08T19:23:45.836Z,101794.38
2022-10-08T19:26:12.742Z,101795.22
2022-10-08T19:28:40.862Z,101798.97
2022-10-08T19:31:19.467Z,101801.81
2022-10-08T19:33:50.496Z,101799.25
2022-10-08T19:36:18.195Z,101807.59
2022-10-08T19:38:45.205Z,101798.72
2022-10-08T19:41:12.047Z,101794.16
2022-10-08T19:43:41.975Z,101800.75
2022-10-08T19:46:08.499Z,101802.44
2022-10-08T19:48:35.143Z,101799.56
2022-10-08T19:51:07.281Z,101804.00
2022-10-08T19:53:33.837Z,101807.72
2022-10-08T19:56:05.694Z,101807.72
2022-10-08T19:58:32.661Z,101806.19
2022-10-08T20:01:04.294Z,101812.75
2022-10-08T20:03:30.741Z,101813.22
2022-10-08T20:05:57.269Z,101815.06
2022-10-08T20:08:23.837Z,101819.97
2022-10-08T20:10:50.424Z,101814.00
2022-10-08T20:13:16.935Z,101814.16
2022-10-08T20:15:47.688Z,101811.56
2022-10-08T20:18:17.859Z,101809.19
2022-10-08T20:20:44.429Z,101814.63
2022-10-08T20:23:11.228Z,101809.47
2022-10-08T20:25:37.848Z,101815.94
2022-10-08T20:28:04.425Z,101814.19
2022-10-08T20:30:31.059Z,101815.22
2022-10-08T20:32:57.554Z,101816.06
2022-10-08T20:35:24.053Z,101804.34
2022-10-08T20:37:50.620Z,101811.63
2022-10-08T20:40:17.103Z,101812.66
2022-10-08T20:42:43.625Z,101813.50
2022-10-08T20:45:12.035Z,101817.25
2022-10-08T20:47:38.571Z,101811.63
2022-10-08T20:50:05.526Z,101815.22
2022-10-08T20:52:32.073Z,101824.38
2022-10-08T20:54:58.590Z,101812.66
2022-10-08T20:57:25.237Z,101815.50
2022-10-08T20:59:51.773Z,101813.81
2022-10-08T21:02:19.924Z,101820.25
2022-10-08T21:04:46.602Z,101820.25
2022-10-08T21:07:13.131Z,101814.13
2022-10-08T21:09:40.952Z,101817.00
2022-10-08T21:12:07.452Z,101816.13
2022-10-08T21:14:33.977Z,101817.00
2022-10-08T21:17:00.518Z,101816.13
2022-10-08T21:19:27.153Z,101815.28
2022-10-08T21:21:53.710Z,101814.44
2022-10-08T21:24:20.249Z,101813.59
2022-10-08T21:26:46.918Z,101819.72
2022-10-08T21:29:14.341Z,101818.84
2022-10-08T21:31:41.815Z,101810.00
2022-10-08T21:34:08.705Z,101811.00
2022-10-08T21:36:37.745Z,101814.72
2022-10-08T21:39:06.755Z,101810.31
2022-10-08T21:41:34.788Z,101807.75
2022-10-08T21:44:02.363Z,101794.47
2022-10-08T21:46:31.188Z,101809.91
2022-10-08T21:49:04.299Z,101815.50
2022-10-08T21:51:32.487Z,101812.94
2022-10-08T21:54:00.968Z,101808.50
2022-10-08T21:56:30.200Z,101809.66
2022-10-08T21:58:59.035Z,101802.69
2022-10-08T22:01:38.668Z,101808.25
2022-10-08T22:04:08.201Z,101804.84
2022-10-08T22:06:40.555Z,101805.72
2022-10-08T22:09:10.718Z,101810.25
2022-10-08T22:11:37.277Z,101811.44
2022-10-08T22:14:03.906Z,101809.03
2022-10-08T22:16:30.700Z,101800.31
2022-10-08T22:18:57.747Z,101802.34
2022-10-08T22:21:24.437Z,101799.06
2022-10-08T22:23:51.872Z,101800.06
2022-10-08T22:26:21.796Z,101798.34
2022-10-08T22:28:49.293Z,101798.34
2022-10-08T22:31:17.061Z,101806.66
2022-10-08T22:33:43.748Z,101797.66
2022-10-08T22:36:13.568Z,101789.69
2022-10-08T22:38:41.416Z,101792.22
2022-10-08T22:41:11.148Z,101795.81
2022-10-08T22:43:39.361Z,101796.66
2022-10-08T22:46:08.612Z,101788.66
2022-10-08T22:48:35.908Z,101798.09
2022-10-08T22:51:07.975Z,101791.81
2022-10-08T22:53:34.845Z,101790.97
2022-10-08T22:56:06.166Z,101791.69
2022-10-08T22:58:33.686Z,101788.97
2022-10-08T23:01:09.094Z,101795.25
2022-10-08T23:03:36.201Z,101789.97
2022-10-08T23:06:08.367Z,101791.13
2022-10-08T23:08:35.982Z,101789.25
2022-10-08T23:11:03.880Z,101785.56
2022-10-08T23:13:30.592Z,101785.56
2022-10-08T23:16:10.877Z,101788.41
2022-10-08T23:18:39.548Z,101790.41
2022-10-08T23:21:15.546Z,101788.69
2022-10-08T23:23:43.737Z,101786.16
2022-10-08T23:26:10.328Z,101790.69
2022-10-08T23:28:37.947Z,101782.56
2022-10-08T23:31:12.830Z,101787.28
2022-10-08T23:33:42.027Z,101785.59
2022-10-08T23:36:10.645Z,101776.59
